createdAt,value
2023-01-06T00:01:06.103Z,24.65
2023-01-06T00:03:32.514Z,17.20
2023-01-06T00:06:00.135Z,15.55
2023-01-06T00:08:26.770Z,18.27
2023-01-06T00:10:53.218Z,16.65
2023-01-06T00:13:19.702Z,16.45
2023-01-06T00:15:46.097Z,13.23
2023-01-06T00:18:13.781Z,14.18
2023-01-06T00:20:40.377Z,14.05
2023-01-06T00:23:06.745Z,18.58
2023-01-06T00:25:33.123Z,13.55
2023-01-06T00:27:59.515Z,12.32
2023-01-06T00:30:25.874Z,13.75
2023-01-06T00:32:52.203Z,11.65
2023-01-06T00:35:18.680Z,10.90
2023-01-06T00:37:45.091Z,11.95
2023-01-06T00:40:11.629Z,10.18
2023-01-06T00:42:38.013Z,10.68
2023-01-06T00:45:04.574Z,10.90
2023-01-06T00:47:30.901Z,13.32
2023-01-06T00:49:57.361Z,11.18
2023-01-06T00:52:23.753Z,13.00
2023-01-06T00:54:50.440Z,10.07
2023-01-06T00:57:16.886Z,8.80
2023-01-06T00:59:43.280Z,12.57
2023-01-06T01:02:09.824Z,11.45
2023-01-06T01:04:36.370Z,13.43
2023-01-06T01:07:03.118Z,11.38
2023-01-06T01:09:30.971Z,14.38
2023-01-06T01:12:09.881Z,16.55
2023-01-06T01:14:41.766Z,7.82
2023-01-06T01:17:09.144Z,12.77
2023-01-06T01:19:36.548Z,11.52
2023-01-06T01:22:03.142Z,14.63
2023-01-06T01:24:29.879Z,10.15
2023-01-06T01:26:56.580Z,10.68
2023-01-06T01:29:23.389Z,12.18
2023-01-06T01:31:49.869Z,15.00
2023-01-06T01:34:17.056Z,11.45
2023-01-06T01:36:45.531Z,13.32
2023-01-06T01:39:13.467Z,10.93
2023-01-06T01:41:39.898Z,12.63
2023-01-06T01:44:43.708Z,9.10
2023-01-06T01:47:11.312Z,13.85
2023-01-06T01:49:39.594Z,9.30
2023-01-06T01:52:07.215Z,10.43
2023-01-06T01:54:34.229Z,9.18
2023-01-06T01:57:05.521Z,11.05
2023-01-06T01:59:33.655Z,12.13
2023-01-06T02:02:00.571Z,10.05
2023-01-06T02:04:28.098Z,12.30
2023-01-06T02:06:54.785Z,9.77
2023-01-06T02:09:27.391Z,11.23
2023-01-06T02:11:56.585Z,15.25
2023-01-06T02:14:24.759Z,12.65
2023-01-06T02:17:12.888Z,12.32
2023-01-06T02:20:14.255Z,10.85
2023-01-06T02:23:11.407Z,11.82
2023-01-06T02:26:12.812Z,14.43
2023-01-06T02:28:56.571Z,13.65
2023-01-06T02:31:34.844Z,10.73
2023-01-06T02:34:16.553Z,9.90
2023-01-06T02:36:49.798Z,17.30
2023-01-06T02:39:34.665Z,14.20
2023-01-06T02:42:28.673Z,11.65
2023-01-06T02:44:57.887Z,10.85
2023-01-06T02:47:39.611Z,13.02
2023-01-06T02:50:18.132Z,15.20
2023-01-06T02:53:06.450Z,12.63
2023-01-06T02:55:41.832Z,14.57
2023-01-06T02:58:15.659Z,14.30
2023-01-06T03:00:52.092Z,10.40
2023-01-06T03:03:21.214Z,11.73
2023-01-06T03:05:51.070Z,11.07
2023-01-06T03:08:20.208Z,11.07
2023-01-06T03:10:47.628Z,9.98
2023-01-06T03:13:22.688Z,11.90
2023-01-06T03:15:49.179Z,10.07
2023-01-06T03:18:15.993Z,11.75
2023-01-06T03:20:42.488Z,11.68
2023-01-06T03:23:08.864Z,7.95
2023-01-06T03:25:37.989Z,9.82
2023-01-06T03:28:04.501Z,8.45
2023-01-06T03:30:42.891Z,7.22
2023-01-06T03:33:25.973Z,8.05
2023-01-06T03:36:02.559Z,7.30
2023-01-06T03:38:39.631Z,6.03
2023-01-06T03:41:16.965Z,6.78
2023-01-06T03:43:52.683Z,7.55
2023-01-06T03:46:29.711Z,7.80
2023-01-06T03:49:08.569Z,7.38
2023-01-06T03:51:34.793Z,8.05
2023-01-06T03:54:09.895Z,8.05
2023-01-06T03:56:41.676Z,8.15
2023-01-06T03:59:12.880Z,8.98
2023-01-06T04:01:43.136Z,8.50
2023-01-06T04:04:09.858Z,10.50
2023-01-06T04:06:36.215Z,9.52
2023-01-06T04:09:02.572Z,9.90
2023-01-06T04:11:47.291Z,9.63
2023-01-06T04:14:13.681Z,10.55
2023-01-06T04:16:40.176Z,10.30
2023-01-06T04:19:06.489Z,9.57
2023-01-06T04:21:32.900Z,10.98
2023-01-06T04:23:59.279Z,10.15
2023-01-06T04:26:25.673Z,10.82
2023-01-06T04:28:52.073Z,11.30
2023-01-06T04:31:18.855Z,12.45
2023-01-06T04:33:45.274Z,14.60
2023-01-06T04:36:11.640Z,15.25
2023-01-06T04:38:38.051Z,13.98
2023-01-06T04:41:04.545Z,16.00
2023-01-06T04:43:30.872Z,14.80
2023-01-06T04:45:59.096Z,13.43
2023-01-06T04:48:25.600Z,14.02
2023-01-06T04:51:03.921Z,13.88
2023-01-06T04:53:33.903Z,14.40
2023-01-06T04:56:04.831Z,10.07
2023-01-06T04:58:31.471Z,12.20
2023-01-06T05:01:06.096Z,10.63
2023-01-06T05:03:32.588Z,10.88
2023-01-06T05:06:02.167Z,8.02
2023-01-06T05:08:29.810Z,8.23
2023-01-06T05:11:03.140Z,7.55
2023-01-06T05:13:31.350Z,7.27
2023-01-06T05:15:57.739Z,4.60
2023-01-06T05:18:24.227Z,4.65
2023-01-06T05:20:51.739Z,4.07
2023-01-06T05:23:18.208Z,4.22
2023-01-06T05:25:44.552Z,4.35
2023-01-06T05:28:11.082Z,6.18
2023-01-06T05:30:37.759Z,4.55
2023-01-06T05:33:04.137Z,3.38
2023-01-06T05:35:30.508Z,3.13
2023-01-06T05:37:57.037Z,2.88
2023-01-06T05:40:23.792Z,2.92
2023-01-06T05:42:54.740Z,4.38
2023-01-06T05:45:22.261Z,4.93
2023-01-06T05:47:48.636Z,3.22
2023-01-06T05:50:15.052Z,3.47
2023-01-06T05:52:41.427Z,5.35
2023-01-06T05:55:08.235Z,3.22
2023-01-06T05:57:35.796Z,5.90
2023-01-06T06:00:05.229Z,3.35
2023-01-06T06:02:31.947Z,3.55
2023-01-06T06:04:58.515Z,3.30
2023-01-06T06:07:24.884Z,4.20
2023-01-06T06:09:51.691Z,3.50
2023-01-06T06:12:18.071Z,3.28
2023-01-06T06:14:44.398Z,4.00
2023-01-06T06:17:10.712Z,4.45
2023-01-06T06:19:37.157Z,4.65
2023-01-06T06:22:04.238Z,6.05
2023-01-06T06:24:30.666Z,6.95
2023-01-06T06:26:57.058Z,6.85
2023-01-06T06:29:23.472Z,6.88
2023-01-06T06:31:49.880Z,5.30
2023-01-06T06:34:16.337Z,5.82
2023-01-06T06:36:42.717Z,6.57
2023-01-06T06:39:09.468Z,5.65
2023-01-06T06:41:35.851Z,3.92
2023-01-06T06:44:03.796Z,4.43
2023-01-06T06:46:30.139Z,4.53
2023-01-06T06:48:56.558Z,3.70
2023-01-06T06:51:23.345Z,5.65
2023-01-06T06:53:50.498Z,4.18
2023-01-06T06:56:18.510Z,3.33
2023-01-06T06:58:45.000Z,4.53
2023-01-06T07:01:14.183Z,4.25
2023-01-06T07:03:40.679Z,3.58
2023-01-06T07:06:08.830Z,5.43
2023-01-06T07:08:35.252Z,4.47
2023-01-06T07:11:02.367Z,2.65
2023-01-06T07:13:28.791Z,1.70
2023-01-06T07:15:55.198Z,3.97
2023-01-06T07:18:21.673Z,2.00
2023-01-06T07:20:49.857Z,2.67
2023-01-06T07:23:17.115Z,1.75
2023-01-06T07:25:43.488Z,3.63
2023-01-06T07:28:09.873Z,2.10
2023-01-06T07:30:36.481Z,2.58
2023-01-06T07:33:04.420Z,2.78
2023-01-06T07:35:30.809Z,2.00
2023-01-06T07:38:06.145Z,1.77
2023-01-06T07:40:32.549Z,1.60
2023-01-06T07:43:03.897Z,2.05
2023-01-06T07:45:30.279Z,1.17
2023-01-06T07:47:56.839Z,1.98
2023-01-06T07:50:25.099Z,1.17
2023-01-06T07:52:52.650Z,2.08
2023-01-06T07:55:19.211Z,4.00
2023-01-06T07:57:45.760Z,1.88
2023-01-06T08:00:12.543Z,3.03
2023-01-06T08:02:39.107Z,1.48
2023-01-06T08:05:05.762Z,2.53
2023-01-06T08:07:32.127Z,1.55
2023-01-06T08:09:58.679Z,1.45
2023-01-06T08:12:25.060Z,2.28
2023-01-06T08:14:51.429Z,2.22
2023-01-06T08:17:17.977Z,1.35
2023-01-06T08:19:44.330Z,1.77
2023-01-06T08:22:10.654Z,2.72
2023-01-06T08:24:37.051Z,1.73
2023-01-06T08:27:03.497Z,3.38
2023-01-06T08:29:29.868Z,4.05
2023-01-06T08:32:09.271Z,3.97
2023-01-06T08:34:36.554Z,2.22
2023-01-06T08:37:03.054Z,2.05
2023-01-06T08:39:29.372Z,2.50
2023-01-06T08:41:55.728Z,3.55
2023-01-06T08:44:22.065Z,2.63
2023-01-06T08:46:48.488Z,2.75
2023-01-06T08:49:14.909Z,2.80
2023-01-06T08:51:41.295Z,4.20
2023-01-06T08:54:07.696Z,2.83
2023-01-06T08:56:35.076Z,1.38
2023-01-06T08:59:04.040Z,4.05
2023-01-06T09:01:35.243Z,1.05
2023-01-06T09:04:04.965Z,3.67
2023-01-06T09:06:31.373Z,3.60
2023-01-06T09:08:58.297Z,2.03
2023-01-06T09:11:25.150Z,2.22
2023-01-06T09:13:51.879Z,4.07
2023-01-06T09:16:18.956Z,1.52
2023-01-06T09:18:49.646Z,2.97
2023-01-06T09:21:21.275Z,1.45
2023-01-06T09:23:47.812Z,0.95
2023-01-06T09:26:15.468Z,1.15
2023-01-06T09:28:42.339Z,2.72
2023-01-06T09:31:09.143Z,2.63
2023-01-06T09:33:35.725Z,2.75
2023-01-06T09:36:02.522Z,2.30
2023-01-06T09:38:28.893Z,3.15
2023-01-06T09:41:14.807Z,4.50
2023-01-06T09:43:53.053Z,1.77
2023-01-06T09:46:23.496Z,2.28
2023-01-06T09:49:19.817Z,2.55
2023-01-06T09:51:46.263Z,2.85
2023-01-06T09:54:20.062Z,2.92
2023-01-06T09:56:51.343Z,1.65
2023-01-06T09:59:25.486Z,1.92
2023-01-06T10:04:29.762Z,1.20
2023-01-06T10:07:02.732Z,2.80
2023-01-06T10:09:58.092Z,1.25
2023-01-06T10:12:39.548Z,1.30
2023-01-06T10:15:08.585Z,2.67
2023-01-06T10:18:19.948Z,1.40
2023-01-06T10:21:07.209Z,1.67
2023-01-06T10:24:01.253Z,2.13
2023-01-06T10:26:32.521Z,1.25
2023-01-06T10:29:06.267Z,1.58
2023-01-06T10:31:35.133Z,1.23
2023-01-06T10:34:02.468Z,1.75
2023-01-06T10:36:35.736Z,1.27
2023-01-06T10:39:07.190Z,0.90
2023-01-06T10:41:41.740Z,1.05
2023-01-06T10:44:10.684Z,1.45
2023-01-06T10:46:37.568Z,1.27
2023-01-06T10:49:07.741Z,2.42
2023-01-06T10:51:42.320Z,2.75
2023-01-06T10:54:12.982Z,1.63
2023-01-06T10:56:43.987Z,1.23
2023-01-06T10:59:11.537Z,0.98
2023-01-06T11:01:56.957Z,1.95
2023-01-06T11:04:27.895Z,1.23
2023-01-06T11:06:56.130Z,1.17
2023-01-06T11:09:49.911Z,0.70
2023-01-06T11:12:19.789Z,1.45
2023-01-06T11:15:03.364Z,2.42
2023-01-06T11:17:30.085Z,0.93
2023-01-06T11:20:18.174Z,0.75
2023-01-06T11:22:45.205Z,0.65
2023-01-06T11:25:20.520Z,1.23
2023-01-06T11:27:47.941Z,0.73
2023-01-06T11:30:22.924Z,0.60
2023-01-06T11:32:49.269Z,0.75
2023-01-06T11:35:20.307Z,0.50
2023-01-06T11:37:46.735Z,0.68
2023-01-06T11:40:33.685Z,1.20
2023-01-06T11:43:06.309Z,0.73
2023-01-06T11:45:38.755Z,1.08
2023-01-06T11:48:14.524Z,0.55
2023-01-06T11:50:40.979Z,0.57
2023-01-06T11:53:18.018Z,1.17
2023-01-06T11:56:22.511Z,1.00
2023-01-06T11:59:13.000Z,0.95
2023-01-06T12:01:46.778Z,0.77
2023-01-06T12:04:41.803Z,2.45
2023-01-06T12:07:20.269Z,0.85
2023-01-06T12:09:49.164Z,1.02
2023-01-06T12:12:20.140Z,1.95
2023-01-06T12:14:46.521Z,1.02
2023-01-06T12:17:48.038Z,0.52
2023-01-06T12:20:27.217Z,0.70
2023-01-06T12:23:20.637Z,0.70
2023-01-06T12:25:51.232Z,0.57
2023-01-06T12:28:36.903Z,0.65
2023-01-06T12:31:15.999Z,0.45
2023-01-06T12:34:11.989Z,1.02
2023-01-06T12:36:42.848Z,1.25
2023-01-06T12:39:18.965Z,0.98
2023-01-06T12:41:52.082Z,0.55
2023-01-06T12:44:43.075Z,1.90
2023-01-06T12:47:18.019Z,1.48
2023-01-06T12:49:53.860Z,2.15
2023-01-06T12:52:30.487Z,3.05
2023-01-06T12:54:58.320Z,1.00
2023-01-06T12:57:55.022Z,0.60
2023-01-06T13:00:36.343Z,1.00
2023-01-06T13:03:20.680Z,1.45
2023-01-06T13:06:16.828Z,1.60
2023-01-06T13:08:53.467Z,0.70
2023-01-06T13:11:22.908Z,1.55
2023-01-06T13:13:58.435Z,0.63
2023-01-06T13:16:46.575Z,2.55
2023-01-06T13:19:37.387Z,0.80
2023-01-06T13:22:06.228Z,0.98
2023-01-06T13:24:44.615Z,1.65
2023-01-06T13:27:37.263Z,0.60
2023-01-06T13:30:40.264Z,1.35
2023-01-06T13:33:23.294Z,1.67
2023-01-06T13:36:10.107Z,1.10
2023-01-06T13:38:51.640Z,2.75
2023-01-06T13:41:23.878Z,0.70
2023-01-06T13:43:52.064Z,0.65
2023-01-06T13:46:20.432Z,1.42
2023-01-06T13:48:51.234Z,2.20
2023-01-06T13:51:20.298Z,0.65
2023-01-06T13:53:47.325Z,1.65
2023-01-06T13:56:13.618Z,1.77
2023-01-06T13:58:41.607Z,0.70
2023-01-06T14:01:17.927Z,0.70
2023-01-06T14:03:45.690Z,1.15
2023-01-06T14:06:24.263Z,1.00
2023-01-06T14:08:59.045Z,0.75
2023-01-06T14:11:31.021Z,1.42
2023-01-06T14:13:59.494Z,1.17
2023-01-06T14:16:43.610Z,4.10
2023-01-06T14:19:18.216Z,1.88
2023-01-06T14:21:45.933Z,1.90
2023-01-06T14:24:25.957Z,0.77
2023-01-06T14:27:03.604Z,1.15
2023-01-06T14:29:48.868Z,0.88
2023-01-06T14:32:20.169Z,4.47
2023-01-06T14:37:44.304Z,1.48
2023-01-06T14:40:32.755Z,0.93
2023-01-06T14:43:04.452Z,0.85
2023-01-06T14:45:37.365Z,1.52
2023-01-06T14:48:13.725Z,2.80
2023-01-06T14:50:47.481Z,3.22
2023-01-06T14:53:33.645Z,1.58
2023-01-06T14:56:00.553Z,0.90
2023-01-06T14:58:32.013Z,0.82
2023-01-06T15:00:59.345Z,2.05
2023-01-06T15:03:27.616Z,1.98
2023-01-06T15:06:22.808Z,1.52
2023-01-06T15:08:49.810Z,2.22
2023-01-06T15:11:30.408Z,1.40
2023-01-06T15:13:57.252Z,2.40
2023-01-06T15:16:38.624Z,1.60
2023-01-06T15:19:10.522Z,0.93
2023-01-06T15:21:40.907Z,2.15
2023-01-06T15:24:20.343Z,1.13
2023-01-06T15:26:46.917Z,2.50
2023-01-06T15:29:16.548Z,1.13
2023-01-06T15:31:43.712Z,1.20
2023-01-06T15:34:17.238Z,3.17
2023-01-06T15:36:45.435Z,4.30
2023-01-06T15:39:14.910Z,1.30
2023-01-06T15:41:41.656Z,1.52
2023-01-06T15:44:35.270Z,1.42
2023-01-06T15:47:14.471Z,5.18
2023-01-06T15:49:56.568Z,1.95
2023-01-06T15:52:25.747Z,2.63
2023-01-06T15:54:57.208Z,1.95
2023-01-06T15:57:23.958Z,3.13
2023-01-06T15:59:55.570Z,2.20
2023-01-06T16:02:26.107Z,2.22
2023-01-06T16:04:52.704Z,1.52
2023-01-06T16:07:32.271Z,3.45
2023-01-06T16:09:58.641Z,6.55
2023-01-06T16:12:25.761Z,36.90
2023-01-06T16:14:52.108Z,5.15
2023-01-06T16:17:44.501Z,8.25
2023-01-06T16:20:23.319Z,3.45
2023-01-06T16:22:55.061Z,1.35
2023-01-06T16:25:21.317Z,3.10
2023-01-06T16:27:48.935Z,1.58
2023-01-06T16:30:17.929Z,1.48
2023-01-06T16:32:47.338Z,1.60
2023-01-06T16:35:19.685Z,1.27
2023-01-06T16:37:48.951Z,1.38
2023-01-06T16:40:17.215Z,1.48
2023-01-06T16:42:44.137Z,2.47
2023-01-06T16:45:14.082Z,1.67
2023-01-06T16:47:41.186Z,2.78
2023-01-06T16:50:17.909Z,1.95
2023-01-06T16:52:45.797Z,1.42
2023-01-06T16:55:14.692Z,1.83
2023-01-06T16:57:41.386Z,1.58
2023-01-06T17:00:14.291Z,2.00
2023-01-06T17:02:41.468Z,1.92
2023-01-06T17:05:25.843Z,2.80
2023-01-06T17:07:57.303Z,2.17
2023-01-06T17:10:24.961Z,3.75
2023-01-06T17:13:14.368Z,1.23
2023-01-06T17:15:41.139Z,2.78
2023-01-06T17:18:21.338Z,1.65
2023-01-06T17:20:48.518Z,1.75
2023-01-06T17:23:14.932Z,2.15
2023-01-06T17:25:43.347Z,1.35
2023-01-06T17:28:19.868Z,1.25
2023-01-06T17:30:46.956Z,2.97
2023-01-06T17:33:14.971Z,1.15
2023-01-06T17:35:47.222Z,3.20
2023-01-06T17:38:17.551Z,1.73
2023-01-06T17:40:43.943Z,1.60
2023-01-06T17:43:22.189Z,1.73
2023-01-06T17:45:48.548Z,3.30
2023-01-06T17:48:14.996Z,1.63
2023-01-06T17:50:54.111Z,1.50
2023-01-06T17:53:52.646Z,1.98
2023-01-06T17:56:21.339Z,2.00
2023-01-06T17:58:47.694Z,2.10
2023-01-06T18:01:19.660Z,2.45
2023-01-06T18:03:46.308Z,2.85
2023-01-06T18:06:30.358Z,1.70
2023-01-06T18:09:05.803Z,2.58
2023-01-06T18:11:35.285Z,1.70
2023-01-06T18:14:15.511Z,1.77
2023-01-06T18:16:45.159Z,2.03
2023-01-06T18:19:33.870Z,1.80
2023-01-06T18:22:02.793Z,1.60
2023-01-06T18:24:37.166Z,2.22
2023-01-06T18:27:13.681Z,2.22
2023-01-06T18:29:42.100Z,2.90
2023-01-06T18:32:20.323Z,2.20
2023-01-06T18:34:48.561Z,3.72
2023-01-06T18:37:15.285Z,2.10
2023-01-06T18:39:47.270Z,2.08
2023-01-06T18:42:18.386Z,1.95
2023-01-06T18:44:44.763Z,1.70
2023-01-06T18:47:16.192Z,2.63
2023-01-06T18:49:42.759Z,2.55
2023-01-06T18:52:34.434Z,2.70
2023-01-06T18:55:00.852Z,3.38
2023-01-06T18:57:31.627Z,1.92
2023-01-06T19:00:31.094Z,2.05
2023-01-06T19:03:31.261Z,1.90
2023-01-06T19:06:16.266Z,3.10
2023-01-06T19:08:45.083Z,2.30
2023-01-06T19:11:13.854Z,2.20
2023-01-06T19:13:40.334Z,1.80
2023-01-06T19:16:26.987Z,1.85
2023-01-06T19:18:56.226Z,2.10
2023-01-06T19:21:22.716Z,4.00
2023-01-06T19:23:49.124Z,2.20
2023-01-06T19:26:15.337Z,2.13
2023-01-06T19:28:41.649Z,2.13
2023-01-06T19:31:18.312Z,2.30
2023-01-06T19:33:56.171Z,2.42
2023-01-06T19:36:38.655Z,2.05
2023-01-06T19:39:17.476Z,2.88
2023-01-06T19:41:44.153Z,2.50
2023-01-06T19:44:13.070Z,3.47
2023-01-06T19:46:41.521Z,2.53
2023-01-06T19:49:23.024Z,2.67
2023-01-06T19:51:53.709Z,2.58
2023-01-06T19:54:43.060Z,2.63
2023-01-06T19:57:23.562Z,2.47
2023-01-06T19:59:49.927Z,3.25
2023-01-06T20:02:33.186Z,2.67
2023-01-06T20:04:59.658Z,2.60
2023-01-06T20:07:26.015Z,2.88
2023-01-06T20:09:57.103Z,3.55
2023-01-06T20:12:23.431Z,3.42
2023-01-06T20:14:51.900Z,3.28
2023-01-06T20:17:19.628Z,2.70
2023-01-06T20:19:45.972Z,2.80
2023-01-06T20:22:12.310Z,2.95
2023-01-06T20:24:38.908Z,4.32
2023-01-06T20:27:07.162Z,2.80
2023-01-06T20:29:33.511Z,3.97
2023-01-06T20:32:00.127Z,3.03
2023-01-06T20:34:29.196Z,4.03
2023-01-06T20:36:55.567Z,3.40
2023-01-06T20:39:21.927Z,4.70
2023-01-06T20:41:50.231Z,3.50
2023-01-06T20:44:16.660Z,3.67
2023-01-06T20:46:43.001Z,3.45
2023-01-06T20:49:09.433Z,3.30
2023-01-06T20:51:35.800Z,3.72
2023-01-06T20:54:02.166Z,4.35
2023-01-06T20:56:28.562Z,4.20
2023-01-06T20:58:54.920Z,4.10
2023-01-06T21:01:21.319Z,3.83
2023-01-06T21:03:47.703Z,4.07
2023-01-06T21:06:14.368Z,4.60
2023-01-06T21:08:40.700Z,4.88
2023-01-06T21:11:07.096Z,3.90
2023-01-06T21:13:33.436Z,3.50
2023-01-06T21:16:01.099Z,6.45
2023-01-06T21:18:27.471Z,5.03
2023-01-06T21:20:53.794Z,3.80
2023-01-06T21:23:20.151Z,3.50
2023-01-06T21:25:46.499Z,3.55
2023-01-06T21:28:12.896Z,3.67
2023-01-06T21:30:39.332Z,5.38
2023-01-06T21:33:05.690Z,3.50
2023-01-06T21:35:32.102Z,3.83
2023-01-06T21:37:58.513Z,3.67
2023-01-06T21:40:24.859Z,3.72
2023-01-06T21:43:09.092Z,3.60
2023-01-06T21:45:43.038Z,3.20
2023-01-06T21:48:13.732Z,3.35
2023-01-06T21:50:42.401Z,3.75
2023-01-06T21:53:09.713Z,4.60
2023-01-06T21:55:36.597Z,5.68
2023-01-06T21:58:03.102Z,3.50
2023-01-06T22:00:29.483Z,4.10
2023-01-06T22:02:56.016Z,6.53
2023-01-06T22:05:22.652Z,3.20
2023-01-06T22:07:50.776Z,3.30
2023-01-06T22:10:19.634Z,3.33
2023-01-06T22:12:46.959Z,3.70
2023-01-06T22:15:15.297Z,4.05
2023-01-06T22:17:44.119Z,3.25
2023-01-06T22:20:11.929Z,4.20
2023-01-06T22:22:38.981Z,3.70
2023-01-06T22:25:06.196Z,3.70
2023-01-06T22:27:32.637Z,4.13
2023-01-06T22:29:59.014Z,5.00
2023-01-06T22:32:29.278Z,3.30
2023-01-06T22:34:55.615Z,3.45
2023-01-06T22:37:24.315Z,4.38
2023-01-06T22:39:50.707Z,3.85
2023-01-06T22:42:17.113Z,4.13
2023-01-06T22:44:43.458Z,3.92
2023-01-06T22:47:11.904Z,4.10
2023-01-06T22:49:38.305Z,4.55
2023-01-06T22:52:05.246Z,3.38
2023-01-06T22:54:31.567Z,4.55
2023-01-06T22:56:57.969Z,4.75
2023-01-06T22:59:24.355Z,3.65
2023-01-06T23:01:53.057Z,3.72
2023-01-06T23:04:19.576Z,3.80
2023-01-06T23:06:45.984Z,3.92
2023-01-06T23:09:12.364Z,3.97
2023-01-06T23:11:41.634Z,3.90
2023-01-06T23:14:10.180Z,4.60
2023-01-06T23:16:38.072Z,4.05
2023-01-06T23:19:04.788Z,4.10
2023-01-06T23:21:31.948Z,5.00
2023-01-06T23:23:58.358Z,5.47
2023-01-06T23:26:29.698Z,3.25
2023-01-06T23:28:57.006Z,4.55
2023-01-06T23:31:36.432Z,4.28
2023-01-06T23:34:06.395Z,3.15
2023-01-06T23:36:33.357Z,3.42
2023-01-06T23:39:01.197Z,4.57
2023-01-06T23:41:29.481Z,3.78
2023-01-06T23:43:56.720Z,3.28
2023-01-06T23:46:26.130Z,3.65
2023-01-06T23:48:52.902Z,3.65
2023-01-06T23:51:19.406Z,3.15
2023-01-06T23:53:46.383Z,4.85
2023-01-06T23:56:14.943Z,3.70
2023-01-06T23:58:43.261Z,4.90
